Etusivu
METAR-TAF:

METAR-TAF

Lentoasemat :

Newton Municipal Airport

Newton, Iowa, Yhdysvallat

Leveyspiiri: 41-41N, Pituuspiiri: 093-01W, korkeus merenpinnasta: 290 m

Tämänhetkinen sää

Tämä raportti tehtiin 20 minuuttia sitten, kello 20.35 UTC
Tuuli 16 kn pohjoisesta puuskistuen 24 kn:hen
Lämpötila 0°C
Kosteus 59%
Ilmanpaine 1024 hPa
Näkyvyys: 16.1 km
Hajonneita pilviä 3900 ft:n korkeudessa

METAR: KTNU 262035Z AUTO 35016G24KT 10SM BKN039 00/M07 A3023 RMK A01

Aika: 14:55 (20:55 UTC)


TAF: puuttuu

Säähavainnot ja -ennusteet yli 4000 lentoasemalta (METAR- ja TAF-raportit).

Käytössä olevat sääasemat on merkitty karttaan keltaisilla ja punaisilla pisteillä.

Aseta hiiri pisteen päälle nähdäksesi sääaseman nimen.

Klikkaa sitten nähdäksesi säähavainnot ja -ennusteet.

Kartan vaihtaminen: klikkaa mustalla rastilla varustettuja vihreitä pisteitä, niin voit zoomata sisään; viivalla varustettua vihreää pistettä, niin voit zoomata ulos tai vihreitä nuolia, niin pääset viereisille kartoille.


METAR-TAF: